Time;durP1;ratioP1;P1;durP2;ratioP2;P2;SDS_P1;SDS_P2;PMS_P1;PMS_P2;Temp;Humidity;BMP_temperature;BMP_pressure;BME280_temperature;BME280_humidity;BME280_pressure;Samples;Min_cycle;Max_cycle;Signal;HPM_P1;HPM_P2
2022/10/15 00:01:12;;;;;;;14.53;11.80;;;14.40;99.90;;;;;;5132109;27;20237;-69
2022/10/15 00:03:40;;;;;;;12.93;11.67;;;14.40;99.90;;;;;;5132223;27;20200;-69
2022/10/15 00:06:08;;;;;;;12.50;11.20;;;14.40;99.90;;;;;;5132129;27;20208;-69
2022/10/15 00:08:36;;;;;;;12.90;11.47;;;14.40;99.90;;;;;;5132407;27;20201;-69
2022/10/15 00:11:05;;;;;;;13.00;11.70;;;14.40;99.90;;;;;;5131555;27;20212;-69
2022/10/15 00:13:32;;;;;;;12.43;11.13;;;14.40;99.90;;;;;;5132366;27;20205;-69
2022/10/15 00:15:59;;;;;;;13.63;12.13;;;14.40;99.90;;;;;;5132222;27;20282;-69
2022/10/15 00:18:27;;;;;;;12.50;11.30;;;14.40;99.90;;;;;;5132083;27;20207;-69
2022/10/15 00:20:54;;;;;;;12.93;11.73;;;14.40;99.90;;;;;;5131990;27;20217;-69
2022/10/15 00:23:21;;;;;;;16.37;11.83;;;14.40;99.90;;;;;;5131805;27;20202;-69
2022/10/15 00:25:48;;;;;;;12.20;11.00;;;14.30;99.90;;;;;;5131571;27;20205;-69
2022/10/15 00:28:15;;;;;;;12.97;11.77;;;14.30;99.90;;;;;;5131636;27;20214;-69
2022/10/15 00:30:41;;;;;;;13.07;11.67;;;14.30;99.90;;;;;;5131775;27;20201;-69
2022/10/15 00:33:08;;;;;;;14.03;11.73;;;14.30;99.90;;;;;;5131563;27;20197;-69
2022/10/15 00:35:36;;;;;;;14.93;12.93;;;14.30;99.90;;;;;;5121683;27;20225;-69
2022/10/15 00:38:03;;;;;;;13.27;11.83;;;14.30;99.90;;;;;;5131689;27;20220;-70
2022/10/15 00:40:30;;;;;;;13.57;12.17;;;14.30;99.90;;;;;;5130818;27;20216;-69
2022/10/15 00:42:56;;;;;;;13.37;11.77;;;14.30;99.90;;;;;;5131149;27;20644;-69
2022/10/15 00:45:23;;;;;;;12.83;11.57;;;14.30;99.90;;;;;;5131207;27;20217;-68
2022/10/15 00:47:51;;;;;;;13.07;11.77;;;14.30;99.90;;;;;;5131262;27;20205;-69
2022/10/15 00:50:21;;;;;;;12.30;11.13;;;14.30;99.90;;;;;;5110849;27;20201;-69
2022/10/15 00:52:58;;;;;;;13.13;11.83;;;14.30;99.90;;;;;;5126086;27;20209;-69
2022/10/15 00:55:29;;;;;;;13.80;12.33;;;14.30;99.90;;;;;;5130872;27;20228;-68
2022/10/15 00:58:00;;;;;;;13.20;11.80;;;14.30;99.90;;;;;;5131152;27;20209;-69
2022/10/15 01:00:27;;;;;;;12.87;11.53;;;14.20;99.90;;;;;;5130449;27;20229;-68
2022/10/15 01:02:54;;;;;;;13.87;12.47;;;14.30;99.90;;;;;;5131324;27;20198;-68
2022/10/15 01:05:21;;;;;;;14.47;13.07;;;14.20;99.90;;;;;;5131285;27;20213;-69
2022/10/15 01:07:49;;;;;;;17.43;12.97;;;14.30;99.90;;;;;;5131277;27;20213;-70
2022/10/15 01:10:17;;;;;;;13.67;12.33;;;14.20;99.90;;;;;;5130733;27;20205;-70
2022/10/15 01:12:57;;;;;;;14.53;12.40;;;14.20;99.90;;;;;;5130731;27;20228;-70
2022/10/15 01:15:27;;;;;;;13.70;12.23;;;14.20;99.90;;;;;;5114345;27;20237;-69
2022/10/15 01:17:58;;;;;;;14.13;12.73;;;14.20;99.90;;;;;;5110085;28;20194;-69
2022/10/15 01:21:07;;;;;;;13.10;11.70;;;14.20;99.90;;;;;;5110330;27;20530;-69
2022/10/15 01:24:12;;;;;;;13.80;12.40;;;14.20;99.90;;;;;;5109872;28;20581;-68
2022/10/15 01:27:09;;;;;;;15.23;12.90;;;14.20;99.90;;;;;;5109689;28;20641;-69
2022/10/15 01:30:18;;;;;;;14.43;12.33;;;14.20;99.90;;;;;;5121303;27;20223;-69
2022/10/15 01:32:54;;;;;;;13.23;11.83;;;14.20;99.90;;;;;;5109435;27;20209;-69
2022/10/15 01:35:28;;;;;;;12.47;11.27;;;14.20;99.90;;;;;;5129970;27;20751;-69
2022/10/15 01:38:03;;;;;;;15.03;11.63;;;14.20;99.90;;;;;;5130353;27;20196;-69
2022/10/15 01:40:34;;;;;;;13.90;12.20;;;14.20;99.90;;;;;;5130157;27;20204;-70
2022/10/15 01:43:03;;;;;;;13.40;12.10;;;14.20;99.90;;;;;;5130387;27;20216;-69
2022/10/15 01:45:36;;;;;;;15.30;12.00;;;14.20;99.90;;;;;;5130094;27;20202;-70
2022/10/15 01:48:09;;;;;;;13.43;12.07;;;14.20;99.90;;;;;;5118405;27;20561;-70
2022/10/15 01:50:40;;;;;;;13.43;12.07;;;14.20;99.90;;;;;;5109961;27;20197;-70
2022/10/15 01:53:09;;;;;;;14.27;11.80;;;14.20;99.90;;;;;;5127652;27;20205;-71
2022/10/15 01:55:37;;;;;;;13.90;12.43;;;14.20;99.90;;;;;;5129800;27;20229;-71
2022/10/15 01:58:05;;;;;;;13.13;11.67;;;14.30;99.90;;;;;;5130556;27;20212;-71
2022/10/15 02:00:32;;;;;;;13.97;12.57;;;14.30;99.90;;;;;;5129524;27;20739;-71
2022/10/15 02:02:59;;;;;;;13.70;12.30;;;14.30;99.90;;;;;;5130140;27;20201;-71
2022/10/15 02:05:32;;;;;;;12.73;11.40;;;14.30;99.90;;;;;;5129706;27;20676;-70
2022/10/15 02:08:06;;;;;;;13.47;11.97;;;14.30;99.90;;;;;;5130191;27;21130;-70
2022/10/15 02:10:42;;;;;;;12.83;11.60;;;14.30;99.90;;;;;;5129726;27;20200;-71
2022/10/15 02:13:17;;;;;;;13.90;12.50;;;14.30;99.90;;;;;;5129779;27;20197;-71
2022/10/15 02:15:52;;;;;;;12.57;11.37;;;14.30;99.90;;;;;;5129969;27;20224;-71
2022/10/15 02:18:29;;;;;;;13.67;12.33;;;14.30;99.90;;;;;;5129707;27;20551;-71
2022/10/15 02:20:59;;;;;;;14.63;12.27;;;14.30;99.90;;;;;;5129733;27;20208;-71
2022/10/15 02:23:31;;;;;;;13.57;12.20;;;14.30;99.90;;;;;;5114319;27;20198;-69
2022/10/15 02:25:59;;;;;;;13.87;12.40;;;14.30;99.90;;;;;;5129313;27;20201;-68
2022/10/15 02:28:28;;;;;;;13.47;12.13;;;14.30;99.90;;;;;;5129541;27;20589;-68
2022/10/15 02:30:58;;;;;;;12.80;11.50;;;14.30;99.90;;;;;;5129505;27;20212;-68
2022/10/15 02:33:26;;;;;;;13.07;11.87;;;14.30;99.90;;;;;;5129044;27;20286;-68
2022/10/15 02:35:54;;;;;;;13.47;12.07;;;14.30;99.90;;;;;;5128830;27;20707;-69
2022/10/15 02:38:26;;;;;;;13.53;12.13;;;14.30;99.90;;;;;;5128903;27;20201;-69
2022/10/15 02:40:53;;;;;;;14.40;12.03;;;14.30;99.90;;;;;;5129165;27;20193;-69
2022/10/15 02:43:21;;;;;;;14.27;12.73;;;14.30;99.90;;;;;;5129101;27;20201;-69
2022/10/15 02:45:49;;;;;;;14.07;12.50;;;14.30;99.90;;;;;;5128908;27;20842;-69
2022/10/15 02:48:15;;;;;;;13.90;12.50;;;14.30;99.90;;;;;;5127308;27;20345;-69
2022/10/15 02:50:42;;;;;;;14.60;12.30;;;14.30;99.90;;;;;;5108549;28;20293;-69
2022/10/15 02:53:09;;;;;;;13.07;11.70;;;14.30;99.90;;;;;;5108573;28;20206;-69
2022/10/15 02:55:37;;;;;;;14.20;12.70;;;14.30;99.90;;;;;;5112671;27;20217;-70
2022/10/15 02:58:04;;;;;;;13.83;12.33;;;14.30;99.90;;;;;;5128825;27;20214;-69
2022/10/15 03:00:31;;;;;;;15.13;12.73;;;14.30;99.90;;;;;;5128650;27;20333;-69
2022/10/15 03:02:57;;;;;;;14.63;11.80;;;14.30;99.90;;;;;;5128924;27;20213;-70
2022/10/15 03:05:24;;;;;;;14.30;12.80;;;14.30;99.90;;;;;;5128408;27;20691;-69
2022/10/15 03:07:51;;;;;;;13.27;11.90;;;14.30;99.90;;;;;;5128089;27;20201;-69
2022/10/15 03:10:20;;;;;;;14.53;12.63;;;14.30;99.90;;;;;;5128166;27;20209;-69
2022/10/15 03:12:48;;;;;;;13.50;12.10;;;14.30;99.90;;;;;;5127740;27;20201;-69
2022/10/15 03:15:14;;;;;;;14.73;13.23;;;14.30;99.90;;;;;;5128531;27;20226;-69
2022/10/15 03:17:41;;;;;;;14.50;13.00;;;14.30;99.90;;;;;;5128466;27;20197;-69
2022/10/15 03:20:08;;;;;;;14.03;12.63;;;14.30;99.90;;;;;;5128667;27;20201;-69
2022/10/15 03:22:35;;;;;;;14.00;12.60;;;14.30;99.90;;;;;;5126680;27;20687;-69
2022/10/15 03:25:02;;;;;;;15.17;12.87;;;14.30;99.90;;;;;;5128308;27;20853;-69
2022/10/15 03:27:28;;;;;;;15.40;13.47;;;14.30;99.90;;;;;;5128038;27;20205;-69
2022/10/15 03:29:57;;;;;;;15.97;12.73;;;14.30;99.90;;;;;;5113917;27;20206;-69
2022/10/15 03:32:23;;;;;;;17.97;13.27;;;14.30;99.90;;;;;;5128150;27;20202;-69
2022/10/15 03:34:50;;;;;;;14.70;13.20;;;14.30;99.90;;;;;;5128690;27;20205;-69
2022/10/15 03:37:17;;;;;;;14.70;13.23;;;14.30;99.90;;;;;;5127926;27;20200;-69
2022/10/15 03:39:43;;;;;;;14.60;13.10;;;14.20;99.90;;;;;;5128639;27;20279;-69
2022/10/15 03:42:10;;;;;;;15.17;12.13;;;14.20;99.90;;;;;;5127715;27;20284;-70
2022/10/15 03:44:37;;;;;;;14.77;13.20;;;14.20;99.90;;;;;;5128479;27;20560;-71
2022/10/15 03:47:05;;;;;;;14.47;12.77;;;14.20;99.90;;;;;;5128363;27;20201;-70
2022/10/15 03:49:32;;;;;;;15.23;13.63;;;14.20;99.90;;;;;;5115700;27;20205;-71
2022/10/15 03:51:59;;;;;;;14.43;12.37;;;14.20;99.90;;;;;;5107875;28;20206;-70
2022/10/15 03:54:26;;;;;;;14.40;13.00;;;14.20;99.90;;;;;;5117751;28;20202;-71
2022/10/15 03:56:52;;;;;;;13.77;12.37;;;14.20;99.90;;;;;;5128229;27;20225;-70
2022/10/15 03:59:20;;;;;;;14.13;12.00;;;14.20;99.90;;;;;;5128397;27;20205;-70
2022/10/15 04:01:46;;;;;;;15.10;12.30;;;14.20;99.90;;;;;;5127674;27;20586;-69
2022/10/15 04:04:14;;;;;;;14.40;12.63;;;14.20;99.90;;;;;;5128055;27;20212;-70
2022/10/15 04:06:41;;;;;;;13.63;12.37;;;14.20;99.90;;;;;;5127700;27;20205;-69
2022/10/15 04:09:11;;;;;;;14.20;12.80;;;14.20;99.90;;;;;;5128284;27;20201;-69
2022/10/15 04:11:37;;;;;;;14.83;13.43;;;14.20;99.90;;;;;;5127441;27;20690;-70
2022/10/15 04:14:06;;;;;;;14.27;12.63;;;14.20;99.90;;;;;;5128102;27;20212;-69
2022/10/15 04:16:33;;;;;;;14.17;12.67;;;14.10;99.90;;;;;;5128256;27;20233;-71
2022/10/15 04:19:00;;;;;;;14.23;12.83;;;14.10;99.90;;;;;;5121590;27;20201;-71
2022/10/15 04:21:28;;;;;;;14.17;12.87;;;14.10;99.90;;;;;;5124159;27;20206;-71
2022/10/15 04:23:55;;;;;;;14.50;13.03;;;14.10;99.90;;;;;;5119559;27;20213;-70
2022/10/15 04:26:21;;;;;;;14.23;12.73;;;14.10;99.90;;;;;;5131523;27;20198;-70
2022/10/15 04:28:48;;;;;;;13.40;12.03;;;14.10;99.90;;;;;;5131786;27;20242;-70
2022/10/15 04:31:15;;;;;;;15.03;12.77;;;14.10;99.90;;;;;;5131278;27;20208;-70
2022/10/15 04:33:42;;;;;;;13.17;11.97;;;14.10;99.90;;;;;;5131800;27;20266;-70
2022/10/15 04:36:12;;;;;;;13.27;11.87;;;14.10;99.90;;;;;;5131359;27;20225;-71
2022/10/15 04:38:40;;;;;;;14.53;12.93;;;14.10;99.90;;;;;;5131679;27;20194;-70
2022/10/15 04:41:09;;;;;;;12.90;11.70;;;14.10;99.90;;;;;;5131072;27;20206;-71
2022/10/15 04:43:37;;;;;;;13.23;11.83;;;14.10;99.90;;;;;;5131411;27;20205;-70
2022/10/15 04:46:07;;;;;;;13.90;12.47;;;14.10;99.90;;;;;;5131280;27;20237;-70
2022/10/15 04:48:36;;;;;;;14.17;12.67;;;14.10;99.90;;;;;;5131399;27;20201;-71
2022/10/15 04:51:07;;;;;;;15.07;13.47;;;14.10;99.90;;;;;;5131481;27;20205;-71
2022/10/15 04:53:34;;;;;;;13.77;12.17;;;14.10;99.90;;;;;;5131394;27;20206;-71
2022/10/15 04:56:04;;;;;;;14.20;12.77;;;14.10;99.90;;;;;;5130204;27;20225;-71
2022/10/15 04:58:32;;;;;;;14.03;12.50;;;14.10;99.90;;;;;;5131237;27;20194;-71
2022/10/15 05:01:01;;;;;;;14.67;13.27;;;14.10;99.90;;;;;;5130864;27;20233;-71
2022/10/15 05:03:27;;;;;;;14.63;13.10;;;14.10;99.90;;;;;;5131052;27;20201;-71
2022/10/15 05:05:54;;;;;;;13.40;12.07;;;14.10;99.90;;;;;;5130960;27;20292;-71
2022/10/15 05:08:21;;;;;;;14.60;13.03;;;14.10;99.90;;;;;;5130956;27;20634;-71
2022/10/15 05:10:48;;;;;;;14.27;12.13;;;14.00;99.90;;;;;;5130787;27;20221;-71
2022/10/15 05:13:16;;;;;;;14.67;13.03;;;14.00;99.90;;;;;;5130809;27;20197;-71
2022/10/15 05:15:42;;;;;;;13.67;12.27;;;14.00;99.90;;;;;;5110519;27;20234;-71
2022/10/15 05:18:09;;;;;;;14.53;12.93;;;14.00;99.90;;;;;;5121467;27;20205;-71
2022/10/15 05:20:36;;;;;;;14.70;12.27;;;14.00;99.90;;;;;;5128057;27;20229;-71
2022/10/15 05:23:05;;;;;;;13.53;11.60;;;14.00;99.90;;;;;;5113291;27;20210;-71
2022/10/15 05:25:31;;;;;;;15.13;13.00;;;14.00;99.90;;;;;;5124367;27;20205;-71
2022/10/15 05:27:58;;;;;;;14.23;12.50;;;14.00;99.90;;;;;;5130544;27;20232;-71
2022/10/15 05:30:26;;;;;;;14.50;12.47;;;14.00;99.90;;;;;;5130405;27;20208;-71
2022/10/15 05:32:53;;;;;;;14.03;12.63;;;14.00;99.90;;;;;;5130683;27;20194;-71
2022/10/15 05:35:21;;;;;;;15.20;12.73;;;14.00;99.90;;;;;;5129825;27;20228;-69
2022/10/15 05:37:49;;;;;;;13.70;12.40;;;14.00;99.90;;;;;;5130396;27;20205;-69
2022/10/15 05:40:16;;;;;;;13.70;12.30;;;14.00;99.90;;;;;;5130113;27;20210;-70
2022/10/15 05:42:42;;;;;;;13.53;12.20;;;14.00;99.90;;;;;;5130507;27;20213;-71
2022/10/15 05:45:10;;;;;;;13.83;12.43;;;14.00;99.90;;;;;;5130463;27;20205;-71
2022/10/15 05:47:38;;;;;;;14.93;12.73;;;14.00;99.90;;;;;;5122144;27;20210;-69
2022/10/15 05:50:06;;;;;;;13.13;11.90;;;14.00;99.90;;;;;;5126764;27;20198;-68
2022/10/15 05:52:32;;;;;;;13.00;11.77;;;13.90;99.90;;;;;;5130314;27;20553;-69
2022/10/15 05:54:59;;;;;;;13.63;12.20;;;13.90;99.90;;;;;;5130036;27;20209;-69
2022/10/15 05:57:26;;;;;;;13.50;12.10;;;13.90;99.90;;;;;;5129726;27;20244;-69
2022/10/15 05:59:52;;;;;;;14.13;12.57;;;13.90;99.90;;;;;;5129973;27;20205;-70
2022/10/15 06:02:19;;;;;;;13.23;11.33;;;13.90;99.90;;;;;;5130246;27;20202;-70
2022/10/15 06:04:48;;;;;;;12.50;11.20;;;13.90;99.90;;;;;;5130061;27;20201;-70
2022/10/15 06:07:15;;;;;;;12.80;11.60;;;13.90;99.90;;;;;;5130143;27;20215;-70
2022/10/15 06:09:42;;;;;;;13.43;12.13;;;13.80;99.90;;;;;;5129873;27;20201;-69
2022/10/15 06:12:08;;;;;;;13.50;12.10;;;13.90;99.90;;;;;;5129614;27;20209;-69
2022/10/15 06:14:35;;;;;;;13.20;12.00;;;13.90;99.90;;;;;;5129883;27;20213;-70
2022/10/15 06:17:02;;;;;;;13.60;12.23;;;13.90;99.90;;;;;;5129382;27;20221;-69
2022/10/15 06:19:29;;;;;;;13.30;11.73;;;13.90;99.90;;;;;;5129727;27;20197;-69
2022/10/15 06:21:57;;;;;;;14.80;12.33;;;13.90;99.90;;;;;;5121766;27;20221;-69
2022/10/15 06:24:24;;;;;;;13.87;12.40;;;13.90;99.90;;;;;;5109141;28;20198;-69
2022/10/15 06:26:51;;;;;;;13.20;11.80;;;13.90;99.90;;;;;;5109747;27;20202;-69
2022/10/15 06:29:17;;;;;;;12.93;11.60;;;13.90;99.90;;;;;;5129297;27;20383;-68
2022/10/15 06:31:44;;;;;;;13.00;11.57;;;13.90;99.90;;;;;;5129244;27;20211;-69
2022/10/15 06:34:11;;;;;;;13.77;12.17;;;14.00;99.90;;;;;;5126936;27;20228;-69
2022/10/15 06:36:38;;;;;;;12.27;10.97;;;14.00;99.90;;;;;;5127309;27;20224;-69
2022/10/15 06:39:06;;;;;;;12.83;11.53;;;14.00;99.90;;;;;;5129037;27;20208;-69
2022/10/15 06:41:33;;;;;;;13.10;11.80;;;14.00;99.90;;;;;;5128921;27;20626;-69
2022/10/15 06:43:59;;;;;;;13.00;11.10;;;14.00;99.90;;;;;;5129450;27;20197;-70
2022/10/15 06:46:26;;;;;;;14.03;11.57;;;14.00;99.90;;;;;;5128590;27;20680;-70
2022/10/15 06:48:54;;;;;;;13.40;12.10;;;14.00;99.90;;;;;;5128956;27;20201;-68
2022/10/15 06:51:21;;;;;;;14.00;12.60;;;14.00;99.90;;;;;;5128596;27;20208;-67
2022/10/15 06:53:48;;;;;;;15.60;14.10;;;14.00;99.90;;;;;;5128936;27;20203;-69
2022/10/15 06:56:16;;;;;;;12.80;11.47;;;14.00;99.90;;;;;;5128471;27;20221;-69
2022/10/15 06:58:43;;;;;;;15.80;11.80;;;14.00;99.90;;;;;;5128987;27;20237;-69
2022/10/15 07:01:10;;;;;;;12.03;10.87;;;14.10;99.90;;;;;;5128445;27;20236;-68
2022/10/15 07:03:37;;;;;;;12.03;10.83;;;14.10;99.90;;;;;;5128725;27;20201;-67
2022/10/15 07:06:06;;;;;;;13.83;11.40;;;14.10;99.90;;;;;;5127286;27;20209;-67
2022/10/15 07:08:33;;;;;;;12.73;11.43;;;14.10;99.90;;;;;;5126969;27;20209;-67
2022/10/15 07:11:02;;;;;;;12.10;10.90;;;14.10;99.90;;;;;;5108544;27;20214;-67
2022/10/15 07:13:30;;;;;;;12.10;10.90;;;14.10;99.90;;;;;;5106005;28;20520;-68
2022/10/15 07:15:57;;;;;;;11.17;10.13;;;14.10;99.90;;;;;;5114997;27;20201;-67
2022/10/15 07:18:24;;;;;;;11.27;10.17;;;14.20;99.90;;;;;;5126762;27;20202;-68
2022/10/15 07:20:51;;;;;;;12.43;11.27;;;14.20;99.90;;;;;;5126844;27;20209;-68
2022/10/15 07:23:17;;;;;;;14.80;10.57;;;14.20;99.90;;;;;;5126875;27;20217;-68
2022/10/15 07:25:44;;;;;;;12.17;11.07;;;14.20;99.90;;;;;;5126332;27;20202;-68
2022/10/15 07:28:11;;;;;;;12.07;10.90;;;14.20;99.90;;;;;;5125757;27;20229;-69
2022/10/15 07:30:39;;;;;;;10.83;9.90;;;14.30;99.90;;;;;;5126393;27;20222;-68
2022/10/15 07:33:06;;;;;;;11.83;10.63;;;14.30;99.90;;;;;;5125952;27;20201;-68
2022/10/15 07:35:32;;;;;;;11.40;10.27;;;14.30;99.90;;;;;;5112344;27;20202;-68
2022/10/15 07:38:01;;;;;;;11.03;9.93;;;14.30;99.90;;;;;;5106106;28;20234;-68
2022/10/15 07:40:28;;;;;;;11.13;10.13;;;14.30;99.90;;;;;;5120142;28;20197;-67
2022/10/15 07:42:55;;;;;;;10.93;9.73;;;14.30;99.90;;;;;;5126112;27;20209;-67
2022/10/15 07:45:23;;;;;;;10.50;9.50;;;14.40;99.90;;;;;;5125991;27;20201;-67
2022/10/15 07:47:51;;;;;;;10.57;9.50;;;14.40;99.90;;;;;;5126014;27;20880;-67
2022/10/15 07:50:18;;;;;;;10.33;9.33;;;14.40;99.90;;;;;;5106849;27;20202;-67
2022/10/15 07:52:45;;;;;;;10.30;9.40;;;14.40;99.90;;;;;;5122474;28;20201;-69
2022/10/15 07:55:12;;;;;;;10.97;9.90;;;14.40;99.90;;;;;;5126069;27;20201;-67
2022/10/15 07:57:39;;;;;;;10.77;9.67;;;14.50;99.90;;;;;;5126094;27;20251;-67
2022/10/15 08:00:08;;;;;;;10.30;9.30;;;14.60;99.90;;;;;;5129057;27;20261;-68
2022/10/15 08:02:35;;;;;;;10.30;9.50;;;14.50;99.90;;;;;;5130855;27;20694;-68
2022/10/15 08:05:03;;;;;;;10.60;9.60;;;14.60;99.90;;;;;;5130383;27;20209;-68
2022/10/15 08:07:30;;;;;;;10.77;9.83;;;14.60;99.90;;;;;;5109908;27;20210;-67
2022/10/15 08:09:57;;;;;;;10.77;9.70;;;14.70;99.90;;;;;;5118967;27;20217;-68
2022/10/15 08:12:24;;;;;;;10.77;9.77;;;14.70;99.90;;;;;;5129663;27;20209;-67
2022/10/15 08:14:50;;;;;;;10.30;9.50;;;14.70;99.90;;;;;;5129551;27;20203;-68
2022/10/15 08:17:17;;;;;;;10.57;9.67;;;14.70;99.90;;;;;;5129604;27;20244;-67
2022/10/15 08:19:44;;;;;;;11.83;10.47;;;14.80;99.90;;;;;;5130328;27;20217;-68
2022/10/15 08:22:12;;;;;;;10.70;9.70;;;14.80;99.90;;;;;;5130037;27;20677;-67
2022/10/15 08:24:39;;;;;;;11.07;10.07;;;14.80;99.90;;;;;;5129115;27;20270;-68
2022/10/15 08:27:06;;;;;;;10.20;9.40;;;14.80;99.90;;;;;;5128704;27;21013;-67
2022/10/15 08:29:32;;;;;;;10.37;9.27;;;14.90;99.90;;;;;;5131107;27;20205;-68
2022/10/15 08:31:59;;;;;;;9.20;8.13;;;15.00;99.90;;;;;;5130075;27;20193;-67
2022/10/15 08:34:26;;;;;;;9.20;8.40;;;15.10;99.90;;;;;;5125570;27;20503;-68
2022/10/15 08:36:53;;;;;;;8.47;7.77;;;15.20;99.90;;;;;;5110580;28;20226;-67
2022/10/15 08:39:21;;;;;;;9.00;8.20;;;15.20;99.90;;;;;;5110418;28;20206;-68
2022/10/15 08:41:51;;;;;;;9.30;8.43;;;15.30;99.90;;;;;;5113892;27;20417;-68
2022/10/15 08:44:24;;;;;;;8.30;7.50;;;15.40;99.90;;;;;;5131531;27;20198;-67
2022/10/15 08:46:55;;;;;;;7.77;7.27;;;15.50;99.90;;;;;;5131225;27;20644;-67
2022/10/15 08:49:33;;;;;;;7.47;6.97;;;15.50;99.90;;;;;;5120312;27;20198;-68
2022/10/15 08:52:08;;;;;;;7.67;6.87;;;15.60;99.90;;;;;;5119363;27;20215;-67
2022/10/15 08:54:37;;;;;;;8.20;7.40;;;15.60;99.90;;;;;;5131181;27;20193;-67
2022/10/15 08:57:16;;;;;;;8.10;7.40;;;15.60;99.90;;;;;;5131002;27;20225;-67
2022/10/15 08:59:48;;;;;;;7.93;7.13;;;15.60;99.90;;;;;;5130851;27;20194;-68
2022/10/15 09:02:19;;;;;;;8.33;7.63;;;15.70;99.90;;;;;;5123562;27;20202;-68
2022/10/15 09:04:53;;;;;;;7.50;6.77;;;15.70;99.90;;;;;;5118968;27;20189;-68
2022/10/15 09:07:26;;;;;;;7.87;7.27;;;15.70;99.90;;;;;;5130780;27;20236;-68
2022/10/15 09:10:01;;;;;;;9.70;8.80;;;15.70;99.90;;;;;;5130496;27;20205;-68
2022/10/15 09:12:42;;;;;;;9.63;8.83;;;15.80;99.90;;;;;;5129612;27;20636;-68
2022/10/15 09:15:13;;;;;;;10.90;9.90;;;15.80;99.90;;;;;;5130616;27;20197;-68
2022/10/15 09:17:42;;;;;;;10.17;9.27;;;15.90;99.90;;;;;;5130805;27;20588;-67
2022/10/15 09:20:16;;;;;;;9.63;8.80;;;15.90;99.90;;;;;;5130450;27;20194;-67
2022/10/15 09:22:44;;;;;;;9.40;8.50;;;15.90;99.90;;;;;;5130126;27;20242;-68
2022/10/15 09:25:17;;;;;;;9.47;8.57;;;15.90;99.90;;;;;;5130701;27;20205;-67
2022/10/15 09:27:46;;;;;;;10.30;8.97;;;15.90;99.90;;;;;;5130606;27;20221;-68
2022/10/15 09:30:27;;;;;;;9.37;8.37;;;16.00;99.90;;;;;;5130229;27;20789;-67
2022/10/15 09:32:59;;;;;;;9.03;8.27;;;16.00;99.90;;;;;;5130404;27;20196;-68
2022/10/15 09:35:29;;;;;;;9.03;8.20;;;16.00;99.90;;;;;;5117390;27;20886;-68
2022/10/15 09:38:06;;;;;;;8.80;7.53;;;16.10;99.90;;;;;;5109994;28;20257;-67
2022/10/15 09:40:50;;;;;;;9.93;8.93;;;16.20;99.90;;;;;;5110000;28;20200;-67
2022/10/15 10:00:14;;;;;;;9.03;8.23;;;16.40;99.90;;;;;;5120400;27;20262;-68
2022/10/15 10:02:41;;;;;;;8.07;7.37;;;16.40;99.90;;;;;;5111276;27;20228;-68
2022/10/15 10:05:24;;;;;;;8.13;7.43;;;16.40;99.90;;;;;;5109413;27;20214;-67
2022/10/15 10:07:50;;;;;;;8.40;7.60;;;16.50;99.90;;;;;;5130188;27;20193;-67
2022/10/15 10:10:24;;;;;;;7.53;6.83;;;16.50;99.90;;;;;;5129820;27;20204;-67
2022/10/15 10:12:52;;;;;;;8.63;6.90;;;16.50;99.90;;;;;;5129342;27;20925;-67
2022/10/15 10:15:33;;;;;;;9.60;7.23;;;16.50;99.90;;;;;;5129836;27;20213;-67
2022/10/15 10:18:00;;;;;;;7.37;6.70;;;16.50;99.90;;;;;;5129731;27;20228;-67
2022/10/15 10:20:28;;;;;;;6.50;6.00;;;16.60;99.90;;;;;;5129586;27;20569;-68
2022/10/15 10:22:57;;;;;;;7.23;6.63;;;16.60;99.90;;;;;;5129157;27;20309;-67
2022/10/15 10:25:30;;;;;;;6.73;6.17;;;16.60;99.90;;;;;;5127518;27;20213;-67
2022/10/15 10:28:03;;;;;;;6.70;6.10;;;16.70;99.90;;;;;;5129049;27;20224;-68
2022/10/15 10:30:35;;;;;;;6.90;6.40;;;16.80;99.90;;;;;;5129510;27;20196;-67
2022/10/15 10:33:03;;;;;;;6.67;6.17;;;16.80;99.90;;;;;;5128846;27;20728;-67
2022/10/15 10:35:44;;;;;;;6.40;5.90;;;16.90;99.90;;;;;;5128816;27;20206;-68
2022/10/15 10:38:19;;;;;;;6.50;6.00;;;16.80;99.90;;;;;;5128799;27;20815;-67
2022/10/15 10:40:51;;;;;;;6.43;5.93;;;16.90;99.90;;;;;;5129111;27;20193;-67
2022/10/15 10:43:23;;;;;;;6.40;5.80;;;17.00;99.90;;;;;;5128739;27;20705;-68
2022/10/15 10:45:57;;;;;;;6.07;5.47;;;17.00;99.90;;;;;;5128923;27;20667;-67
2022/10/15 10:48:27;;;;;;;5.83;5.37;;;17.10;99.90;;;;;;5128824;27;20758;-68
2022/10/15 10:51:09;;;;;;;6.27;5.67;;;17.10;99.90;;;;;;5129112;27;20559;-67
2022/10/15 10:53:46;;;;;;;6.43;6.03;;;17.10;99.90;;;;;;5108664;28;21035;-68
2022/10/15 10:56:14;;;;;;;6.00;5.50;;;17.20;99.90;;;;;;5127932;27;20205;-68
2022/10/15 10:58:42;;;;;;;5.73;5.33;;;17.20;99.90;;;;;;5125307;27;20269;-67
2022/10/15 11:01:13;;;;;;;5.20;4.90;;;17.30;99.90;;;;;;5108084;28;20257;-68
2022/10/15 11:03:41;;;;;;;5.90;5.37;;;17.50;99.90;;;;;;5108357;28;20194;-68
2022/10/15 11:06:24;;;;;;;6.03;5.57;;;17.60;99.90;;;;;;5108468;28;20253;-68
2022/10/15 11:09:02;;;;;;;5.80;5.40;;;17.60;99.90;;;;;;5108333;28;20281;-68
2022/10/15 11:11:36;;;;;;;5.90;5.50;;;17.60;99.90;;;;;;5107772;28;20198;-68
2022/10/15 11:14:16;;;;;;;6.27;5.80;;;17.50;99.90;;;;;;5108214;28;20530;-67
2022/10/15 11:16:51;;;;;;;5.40;4.90;;;17.50;99.90;;;;;;5108370;28;20281;-68
2022/10/15 11:19:28;;;;;;;5.57;5.17;;;17.50;99.90;;;;;;5118991;27;20223;-67
2022/10/15 11:22:09;;;;;;;5.10;4.80;;;17.50;99.90;;;;;;5128523;27;20565;-68
2022/10/15 11:24:42;;;;;;;5.50;5.10;;;17.60;99.90;;;;;;5128770;27;20197;-67
2022/10/15 11:27:26;;;;;;;5.63;5.13;;;17.70;99.90;;;;;;5127474;27;20595;-68
2022/10/15 11:29:58;;;;;;;5.53;5.10;;;17.70;99.90;;;;;;5128629;27;20199;-68
2022/10/15 11:32:41;;;;;;;5.47;5.00;;;17.80;99.90;;;;;;5128362;27;20682;-68
2022/10/15 11:35:29;;;;;;;5.20;4.80;;;17.80;99.90;;;;;;5127762;27;20194;-67
2022/10/15 11:38:05;;;;;;;4.70;4.33;;;18.00;99.90;;;;;;5107888;28;20221;-68
2022/10/15 11:40:46;;;;;;;5.40;5.00;;;18.20;99.90;;;;;;5117301;28;20197;-68
2022/10/15 11:43:24;;;;;;;5.33;4.83;;;18.40;99.90;;;;;;5128331;27;20296;-68
2022/10/15 11:46:03;;;;;;;4.40;4.03;;;18.50;99.90;;;;;;5128696;27;20553;-68
2022/10/15 11:48:46;;;;;;;5.10;4.70;;;18.60;99.90;;;;;;5128042;27;20197;-68
2022/10/15 11:51:22;;;;;;;4.40;4.20;;;18.60;99.90;;;;;;5128228;27;20199;-68
2022/10/15 11:54:14;;;;;;;6.30;4.40;;;18.60;99.90;;;;;;5128049;27;20213;-68
2022/10/15 11:56:45;;;;;;;4.20;3.90;;;18.50;99.90;;;;;;5127966;27;20208;-68
2022/10/15 11:59:23;;;;;;;4.37;4.17;;;18.30;99.90;;;;;;5114653;27;20226;-68
2022/10/15 12:01:54;;;;;;;4.00;3.80;;;18.20;99.90;;;;;;5107255;28;20237;-68
2022/10/15 12:04:30;;;;;;;4.10;3.90;;;18.20;99.90;;;;;;5107601;28;20198;-68
2022/10/15 12:07:00;;;;;;;4.73;3.70;;;18.20;99.90;;;;;;5107689;28;20197;-68
2022/10/15 12:09:30;;;;;;;4.30;3.90;;;18.40;99.90;;;;;;5107643;28;20304;-68
2022/10/15 12:12:05;;;;;;;4.53;4.20;;;18.40;99.90;;;;;;5107506;28;20213;-68
2022/10/15 12:14:38;;;;;;;6.77;4.03;;;18.40;99.90;;;;;;5107613;28;20190;-68
2022/10/15 12:17:14;;;;;;;4.40;4.20;;;18.50;99.90;;;;;;5107712;28;20290;-68
2022/10/15 12:19:48;;;;;;;4.13;3.83;;;18.50;99.90;;;;;;5107576;28;20228;-68
2022/10/15 12:22:32;;;;;;;3.80;3.60;;;18.50;99.90;;;;;;5107686;28;20207;-68
2022/10/15 12:24:59;;;;;;;4.10;3.77;;;18.40;99.90;;;;;;5107429;28;20205;-68
2022/10/15 12:27:34;;;;;;;5.00;4.07;;;18.40;99.90;;;;;;5107322;28;20717;-68
2022/10/15 12:30:21;;;;;;;4.00;3.77;;;18.40;99.90;;;;;;5107699;28;20518;-68
2022/10/15 12:32:48;;;;;;;6.07;3.97;;;18.30;99.90;;;;;;5116921;28;20205;-68
2022/10/15 12:35:23;;;;;;;3.70;3.50;;;18.30;99.90;;;;;;5127714;27;20233;-68
2022/10/15 12:37:50;;;;;;;4.53;4.20;;;18.20;99.90;;;;;;5127852;27;20221;-68
2022/10/15 12:40:28;;;;;;;4.03;3.73;;;18.20;99.90;;;;;;5127640;27;20210;-68
2022/10/15 12:42:57;;;;;;;4.70;4.30;;;18.10;99.90;;;;;;5127647;27;20194;-68
2022/10/15 12:45:28;;;;;;;4.53;4.23;;;18.10;99.90;;;;;;5129197;27;20208;-68
2022/10/15 12:48:12;;;;;;;5.10;4.67;;;18.00;99.90;;;;;;5131422;27;20198;-68
2022/10/15 12:50:40;;;;;;;4.50;4.10;;;17.90;99.90;;;;;;5121852;27;20550;-68
2022/10/15 12:53:31;;;;;;;4.30;3.90;;;17.90;99.90;;;;;;5129896;27;20210;-68
2022/10/15 12:56:20;;;;;;;4.00;3.80;;;17.90;99.90;;;;;;5130699;27;20202;-68
2022/10/15 12:58:49;;;;;;;6.17;3.80;;;17.80;99.90;;;;;;5131142;27;20236;-68
2022/10/15 13:01:49;;;;;;;5.57;3.83;;;17.80;99.90;;;;;;5130557;27;20240;-68
2022/10/15 13:04:16;;;;;;;4.00;3.77;;;17.80;99.90;;;;;;5130844;27;20333;-68
2022/10/15 13:06:44;;;;;;;4.60;4.20;;;17.80;99.90;;;;;;5131251;27;20206;-68